Marcus, Iowa
Current Conditions -  °F | °C
As of 8:15 AM on Tuesday 27 Jan 2015 (Local Time) from KCKP Reporting Station
Overcast Overcast  
Wind Chill: 26°   Ceiling: 400
Heat Index: 31°   Visibility: 7mi
Dew Point: 31°   Wind: 5mph
Humidity: 100%   Direction: 80°E
Pressure: 30.13"   Gusts: NA
Location:  42.83°N, 95.81°W
Report Text: KCKP 271415Z AUTO 08004KT 7SM OVC004 00/00 A3013 RMK AO2 T10051005
Loading
Personal Weather Stations






























Interactive Weather Map New forecast layout! Learn more

10-Day Weather Forecast

Advertisements
Track Severe Weather on mobile